Time;durP1;ratioP1;P1;durP2;ratioP2;P2;SDS_P1;SDS_P2;PMS_P1;PMS_P2;Temp;Humidity;BMP_temperature;BMP_pressure;BME280_temperature;BME280_humidity;BME280_pressure;Samples;Min_cycle;Max_cycle;Signal;HPM_P1;HPM_P2
2021/12/07 00:00:46;;;;;;;21.77;7.15;;;;;;;16.30;61.46;100820.39;1701288;83;21049;-66
2021/12/07 00:03:12;;;;;;;12.13;6.08;;;;;;;16.30;61.46;100818.62;1686416;83;21553;-67
2021/12/07 00:05:40;;;;;;;18.45;6.25;;;;;;;16.28;61.48;100817.83;1745709;80;21019;-67
2021/12/07 00:08:07;;;;;;;16.35;6.28;;;;;;;16.25;61.52;100823.23;1763212;80;20975;-66
2021/12/07 00:10:34;;;;;;;24.43;6.87;;;;;;;16.26;61.46;100830.18;1761638;80;21501;-66
2021/12/07 00:13:01;;;;;;;17.12;6.42;;;;;;;16.24;61.56;100824.14;1760305;80;21475;-68
2021/12/07 00:15:30;;;;;;;16.27;5.95;;;;;;;16.23;61.57;100819.83;1758110;80;21073;-67
2021/12/07 00:17:57;;;;;;;17.05;6.08;;;;;;;16.24;61.62;100826.77;1755303;81;21035;-66
2021/12/07 00:20:24;;;;;;;20.97;6.92;;;;;;;16.26;61.56;100827.55;1763373;81;21030;-65
2021/12/07 00:22:54;;;;;;;18.73;6.42;;;;;;;16.30;61.56;100826.50;1758489;80;21574;-67
2021/12/07 00:25:23;;;;;;;;;;;;;;;16.32;61.42;100825.59;1758117;80;21014;-66
2021/12/07 00:27:51;;;;;;;18.27;6.47;;;;;;;16.33;61.34;100828.59;1774677;80;20124;-65
2021/12/07 00:30:17;;;;;;;14.65;6.60;;;;;;;16.30;61.22;100823.87;1763303;80;21027;-66
2021/12/07 00:32:52;;;;;;;20.30;7.35;;;;;;;16.29;61.30;100817.38;1744225;80;21046;-67
2021/12/07 00:37:43;;;;;;;16.37;6.10;;;;;;;16.28;61.32;100816.97;1762480;80;21124;-66
2021/12/07 00:40:12;;;;;;;12.90;5.78;;;;;;;16.28;61.34;100817.83;1756988;80;21018;-66
2021/12/07 00:42:39;;;;;;;24.65;7.53;;;;;;;16.30;61.29;100815.99;1773750;80;21026;-66
2021/12/07 00:45:08;;;;;;;14.87;7.15;;;;;;;16.33;61.23;100819.41;1763097;80;20991;-66
2021/12/07 00:47:37;;;;;;;19.62;8.18;;;;;;;16.34;61.08;100821.98;1763074;80;21542;-66
2021/12/07 00:50:06;;;;;;;12.35;5.72;;;;;;;16.34;61.04;100808.00;1756131;80;21070;-66
2021/12/07 00:52:33;;;;;;;19.42;7.20;;;;;;;16.33;61.04;100811.52;1750298;80;21060;-67
2021/12/07 00:55:00;;;;;;;17.82;7.75;;;;;;;16.30;61.06;100805.94;1753789;80;21062;-67
2021/12/07 00:57:27;;;;;;;20.55;6.65;;;;;;;16.30;61.06;100810.74;1751336;81;21058;-67
2021/12/07 00:59:54;;;;;;;16.93;5.72;;;;;;;16.29;61.07;100803.80;1754005;80;21493;-66
2021/12/07 01:02:20;;;;;;;21.68;7.53;;;;;;;16.29;61.13;100809.05;1746253;80;21018;-67
2021/12/07 01:04:53;;;;;;;14.28;7.37;;;;;;;16.29;61.18;100802.94;1756437;80;21058;-67
2021/12/07 01:07:33;;;;;;;19.25;6.97;;;;;;;16.30;61.10;100813.37;1748891;80;21009;-66
2021/12/07 01:25:57;;;;;;;15.75;7.35;;;;;;;16.26;61.16;100825.38;1668398;84;21110;-66
2021/12/07 01:28:33;;;;;;;17.85;7.08;;;;;;;16.24;61.21;100813.64;1685234;84;21523;-67
2021/12/07 01:36:42;;;;;;;25.50;8.03;;;;;;;16.16;61.39;100815.75;1636472;86;21086;-66
2021/12/07 01:42:46;;;;;;;23.77;8.13;;;;;;;16.16;61.53;100814.89;1628495;86;21110;-67
2021/12/07 01:46:58;;;;;;;18.70;7.97;;;;;;;16.19;61.60;100826.13;1634766;86;21039;-66
2021/12/07 01:59:49;;;;;;;17.48;6.85;;;;;;;16.29;61.32;100790.67;1699702;83;21246;-67
2021/12/07 02:02:16;;;;;;;24.27;7.78;;;;;;;16.31;61.30;100786.66;1696629;83;21121;-66
2021/12/07 02:04:44;;;;;;;28.02;8.35;;;;;;;16.32;61.39;100783.58;1691117;84;21687;-67
2021/12/07 02:07:11;;;;;;;27.50;8.58;;;;;;;16.36;61.14;100779.89;1690177;83;21269;-66
2021/12/07 02:09:42;;;;;;;29.02;8.90;;;;;;;16.39;61.10;100771.86;1689891;83;21165;-67
2021/12/07 02:12:08;;;;;;;24.25;9.18;;;;;;;16.41;60.79;100777.44;1645443;86;21554;-67
2021/12/07 02:14:35;;;;;;;31.90;8.40;;;;;;;16.42;60.61;100775.22;1617352;85;21011;-67
2021/12/07 02:17:10;;;;;;;17.20;8.10;;;;;;;16.42;60.52;100777.84;1654891;86;21073;-67
2021/12/07 02:19:37;;;;;;;24.50;9.30;;;;;;;16.41;60.51;100780.06;1516636;92;21155;-66
2021/12/07 02:22:04;;;;;;;22.55;7.80;;;;;;;16.39;60.66;100767.92;1538093;92;21160;-67
2021/12/07 02:24:33;;;;;;;22.15;8.45;;;;;;;16.40;60.70;100774.89;1568147;89;21101;-67
2021/12/07 02:27:00;;;;;;;24.18;7.70;;;;;;;16.41;60.71;100775.27;1579742;89;21047;-67
2021/12/07 02:29:26;;;;;;;21.73;8.23;;;;;;;16.42;60.70;100776.98;1586539;89;21097;-67
2021/12/07 02:31:54;;;;;;;27.67;9.08;;;;;;;16.42;60.54;100780.93;1597275;89;21126;-67
2021/12/07 02:34:23;;;;;;;26.73;8.73;;;;;;;16.42;60.53;100787.49;1593277;89;21618;-67
2021/12/07 02:36:50;;;;;;;22.98;8.65;;;;;;;16.41;60.51;100780.52;1592959;89;21075;-67
2021/12/07 02:39:18;;;;;;;25.08;8.00;;;;;;;16.40;60.48;100780.14;1568213;89;21060;-68
2021/12/07 02:41:44;;;;;;;18.52;7.08;;;;;;;16.40;60.62;100777.06;1587878;89;21115;-66
2021/12/07 02:44:13;;;;;;;28.35;7.70;;;;;;;16.40;60.61;100779.69;1588978;89;21136;-67
2021/12/07 02:46:40;;;;;;;15.35;6.78;;;;;;;16.41;60.56;100779.20;1596370;89;21055;-66
2021/12/07 02:49:08;;;;;;;16.25;7.35;;;;;;;16.40;60.60;100777.06;1550368;89;21040;-66
2021/12/07 02:51:34;;;;;;;16.32;6.10;;;;;;;16.37;60.72;100782.89;1595326;89;21563;-67
2021/12/07 02:54:01;;;;;;;14.75;6.20;;;;;;;16.35;60.85;100780.80;1583300;89;21600;-67
2021/12/07 02:56:28;;;;;;;23.45;6.47;;;;;;;16.33;60.96;100777.39;1593082;89;21036;-67
2021/12/07 02:59:01;;;;;;;18.35;6.70;;;;;;;16.32;61.00;100775.70;1584543;89;21142;-67
2021/12/07 03:01:30;;;;;;;12.03;4.33;;;;;;;16.31;60.97;100773.53;1588418;89;21082;-66
2021/12/07 03:04:13;;;;;;;14.25;5.55;;;;;;;16.33;60.92;100773.45;1578823;89;21157;-66
2021/12/07 03:06:58;;;;;;;11.90;4.50;;;;;;;16.33;60.89;100770.38;1578315;89;21114;-66
2021/12/07 03:28:21;;;;;;;14.50;4.37;;;;;;;16.38;61.17;100787.24;1671748;83;21735;-66
2021/12/07 03:30:49;;;;;;;14.53;3.70;;;;;;;16.41;61.33;100789.71;1684221;83;21577;-66
2021/12/07 03:33:16;;;;;;;22.75;5.80;;;;;;;16.43;61.51;100783.93;1686080;83;21034;-66
2021/12/07 03:35:44;;;;;;;30.10;7.80;;;;;;;16.45;61.76;100786.02;1691348;83;21564;-68
2021/12/07 03:38:11;;;;;;;26.55;7.00;;;;;;;16.45;62.05;100775.52;1686414;82;21038;-66
2021/12/07 03:40:38;;;;;;;23.20;6.72;;;;;;;16.46;62.34;100775.92;1691611;83;21066;-66
2021/12/07 03:43:06;;;;;;;18.07;5.58;;;;;;;16.45;62.48;100782.09;1692791;83;20996;-67
2021/12/07 03:45:33;;;;;;;17.77;5.87;;;;;;;16.45;62.73;100782.09;1677492;83;21506;-66
2021/12/07 03:48:02;;;;;;;19.40;7.30;;;;;;;16.45;62.90;100775.52;1699888;82;21594;-67
2021/12/07 03:50:29;;;;;;;22.27;7.08;;;;;;;16.46;63.01;100769.36;1711340;82;21082;-67
2021/12/07 03:52:55;;;;;;;21.10;6.15;;;;;;;16.49;63.10;100762.22;1685996;83;21116;-68
2021/12/07 03:55:23;;;;;;;29.65;7.65;;;;;;;16.52;63.18;100758.60;1693306;83;21144;-67
2021/12/07 03:57:49;;;;;;;20.45;7.20;;;;;;;16.57;63.23;100763.20;1710810;82;21067;-68
2021/12/07 04:00:22;;;;;;;16.37;5.70;;;;;;;16.62;63.03;100758.56;1681624;82;20998;-68
2021/12/07 04:02:53;;;;;;;25.55;7.53;;;;;;;16.65;62.97;100758.44;1667874;84;21070;-67
2021/12/07 04:05:22;;;;;;;22.22;7.20;;;;;;;16.68;62.90;100739.89;1689178;83;21554;-67
2021/12/07 04:07:49;;;;;;;23.62;7.53;;;;;;;16.70;62.93;100738.05;1662604;83;21083;-67
2021/12/07 04:10:18;;;;;;;23.90;7.45;;;;;;;16.72;62.83;100738.82;1660771;83;21129;-68
2021/12/07 04:12:45;;;;;;;22.95;7.47;;;;;;;16.74;62.69;100739.59;1679241;83;21058;-67
2021/12/07 04:15:14;;;;;;;27.07;7.80;;;;;;;16.73;62.51;100749.73;1672991;83;21046;-69
2021/12/07 04:17:41;;;;;;;26.25;7.50;;;;;;;16.70;62.44;100746.78;1702613;83;21486;-68
2021/12/07 04:20:10;;;;;;;21.33;6.75;;;;;;;16.68;62.60;100741.20;1684047;82;21527;-68
2021/12/07 04:22:37;;;;;;;26.55;6.87;;;;;;;16.70;62.67;100743.30;1696341;82;21045;-68
2021/12/07 04:25:05;;;;;;;23.25;6.45;;;;;;;16.70;62.58;100730.16;1731660;80;21033;-68
2021/12/07 04:27:37;;;;;;;22.95;6.95;;;;;;;16.71;62.50;100726.62;1750591;80;21443;-68
2021/12/07 04:30:02;;;;;;;30.17;7.95;;;;;;;16.73;62.48;100733.97;1744494;80;21061;-67
2021/12/07 04:32:28;;;;;;;27.27;7.33;;;;;;;16.73;62.40;100732.66;1758431;80;21055;-69
2021/12/07 04:34:55;;;;;;;23.25;7.85;;;;;;;16.74;62.34;100734.34;1765035;80;21026;-68
2021/12/07 04:37:21;;;;;;;32.25;8.05;;;;;;;16.74;62.27;100734.34;1765582;80;21040;-68
2021/12/07 04:39:47;;;;;;;25.82;7.80;;;;;;;16.73;62.16;100726.09;1763887;80;20987;-69
2021/12/07 04:42:14;;;;;;;22.90;7.17;;;;;;;16.72;62.31;100723.05;1761211;80;21137;-68
2021/12/07 04:44:48;;;;;;;22.73;6.22;;;;;;;16.71;62.30;100726.62;1756035;80;21025;-68
2021/12/07 05:00:23;;;;;;;18.05;6.28;;;;;;;16.74;61.82;100723.83;1611366;87;21561;-69
2021/12/07 05:05:20;;;;;;;20.50;5.87;;;;;;;16.71;61.74;100720.05;1601658;88;21543;-69
2021/12/07 05:07:52;;;;;;;18.67;5.90;;;;;;;16.69;61.90;100713.53;1602352;88;21566;-69
2021/12/07 05:10:30;;;;;;;18.35;6.12;;;;;;;16.68;62.02;100721.50;1607301;88;21532;-69
2021/12/07 05:15:33;;;;;;;17.70;6.53;;;;;;;16.65;61.96;100719.03;1608325;88;21110;-69
2021/12/07 05:39:09;;;;;;;21.57;6.85;;;;;;;16.49;61.95;100714.05;1578042;90;21100;-69
2021/12/07 05:41:35;;;;;;;20.08;6.85;;;;;;;16.48;62.01;100724.17;1584232;89;21618;-69
2021/12/07 05:44:03;;;;;;;18.27;6.78;;;;;;;16.48;61.95;100732.06;1583244;90;21596;-69
2021/12/07 05:46:29;;;;;;;20.57;8.08;;;;;;;16.47;61.96;100730.34;1569850;90;21082;-70
2021/12/07 05:48:56;;;;;;;18.90;6.53;;;;;;;16.45;62.00;100722.99;1580321;90;21023;-70
2021/12/07 05:51:22;;;;;;;21.30;7.83;;;;;;;16.43;61.99;100710.39;1585048;90;21121;-69
2021/12/07 05:53:49;;;;;;;22.02;7.22;;;;;;;16.40;62.01;100700.05;1587852;89;21070;-69
2021/12/07 05:56:15;;;;;;;18.37;6.75;;;;;;;16.34;62.03;100699.02;1605894;86;21032;-70
2021/12/07 05:58:41;;;;;;;19.62;7.40;;;;;;;16.29;62.21;100709.27;1715471;83;21061;-69
2021/12/07 06:01:08;;;;;;;21.70;7.85;;;;;;;16.21;62.34;100700.90;1722959;80;21070;-69
2021/12/07 06:03:34;;;;;;;22.17;6.50;;;;;;;16.17;62.39;100711.15;1760384;80;21038;-69
2021/12/07 06:06:03;;;;;;;19.82;7.35;;;;;;;16.14;62.53;100727.48;1745928;81;21057;-69
2021/12/07 06:08:30;;;;;;;24.95;8.50;;;;;;;16.14;62.72;100711.27;1758595;81;21558;-70
2021/12/07 06:10:56;;;;;;;23.40;7.60;;;;;;;16.16;62.79;100708.12;1756805;80;21038;-69
2021/12/07 06:13:23;;;;;;;28.60;8.58;;;;;;;16.17;62.76;100711.15;1764087;80;20998;-70
2021/12/07 06:15:50;;;;;;;25.57;9.18;;;;;;;16.20;62.84;100708.82;1752506;80;21030;-70
2021/12/07 06:18:17;;;;;;;20.43;8.43;;;;;;;16.22;62.82;100709.15;1764692;80;21040;-70
2021/12/07 06:20:43;;;;;;;23.47;8.40;;;;;;;16.25;62.73;100710.34;1755161;80;21041;-69
2021/12/07 06:23:11;;;;;;;16.10;7.37;;;;;;;16.27;62.77;100713.74;1772897;80;21089;-69
2021/12/07 06:25:38;;;;;;;21.73;7.17;;;;;;;16.28;62.74;100718.06;1756464;80;21027;-70
2021/12/07 06:28:04;;;;;;;16.82;7.20;;;;;;;16.29;62.77;100714.52;1758540;80;20994;-69
2021/12/07 06:30:32;;;;;;;19.10;6.78;;;;;;;16.32;62.90;100720.55;1754467;80;21042;-70
2021/12/07 06:32:59;;;;;;;24.47;8.03;;;;;;;16.35;62.96;100716.46;1773345;80;21041;-70
2021/12/07 06:35:26;;;;;;;19.45;8.40;;;;;;;16.40;62.94;100711.86;1750128;80;21062;-69
2021/12/07 06:37:52;;;;;;;24.65;8.95;;;;;;;16.44;62.79;100697.66;1754423;80;21022;-70
2021/12/07 06:40:19;;;;;;;27.10;9.35;;;;;;;16.47;62.80;100690.94;1769819;80;20966;-70
2021/12/07 06:42:45;;;;;;;22.45;8.08;;;;;;;16.48;62.73;100701.85;1753369;80;21027;-69
2021/12/07 06:45:12;;;;;;;21.00;8.73;;;;;;;16.52;62.81;100686.38;1751038;80;21081;-69
2021/12/07 06:47:39;;;;;;;23.22;8.80;;;;;;;16.56;62.64;100690.55;1745574;81;21090;-69
2021/12/07 06:50:09;;;;;;;23.92;9.20;;;;;;;16.62;62.69;100696.83;1749758;80;21062;-69
2021/12/07 06:52:35;;;;;;;17.37;7.72;;;;;;;16.65;62.55;100696.70;1753873;80;21113;-69
2021/12/07 06:55:04;;;;;;;16.85;6.85;;;;;;;16.68;62.35;100697.85;1744747;81;21140;-69
2021/12/07 06:57:31;;;;;;;24.10;8.58;;;;;;;16.70;62.19;100688.12;1759621;80;21049;-69
2021/12/07 06:59:57;;;;;;;23.20;8.73;;;;;;;16.70;62.23;100686.80;1758093;80;21029;-69
2021/12/07 07:02:23;;;;;;;20.65;7.92;;;;;;;16.71;62.19;100685.90;1767333;80;20991;-69
2021/12/07 07:04:50;;;;;;;17.73;7.95;;;;;;;16.72;62.15;100687.58;1753899;80;21014;-70
2021/12/07 07:07:18;;;;;;;17.07;7.35;;;;;;;16.74;61.97;100692.30;1755077;80;21568;-69
2021/12/07 07:09:46;;;;;;;23.95;7.62;;;;;;;16.75;61.93;100691.39;1759005;80;21058;-68
2021/12/07 07:12:13;;;;;;;24.25;8.68;;;;;;;16.77;61.84;100689.55;1758255;80;21033;-69
2021/12/07 07:14:41;;;;;;;19.60;7.40;;;;;;;16.78;61.74;100691.23;1754144;80;21037;-74
2021/12/07 07:17:07;;;;;;;15.00;6.78;;;;;;;16.77;61.65;100693.48;1744311;80;21029;-76
2021/12/07 07:19:34;;;;;;;22.10;8.10;;;;;;;16.76;61.45;100689.14;1766273;80;21002;-74
2021/12/07 07:22:02;;;;;;;25.65;7.35;;;;;;;16.73;61.41;100693.24;1753623;80;21003;-74
2021/12/07 07:24:30;;;;;;;20.25;7.62;;;;;;;16.68;61.51;100693.45;1761369;80;21042;-74
2021/12/07 07:26:57;;;;;;;15.50;6.70;;;;;;;16.66;61.52;100701.02;1750409;80;21002;-76
2021/12/07 07:29:24;;;;;;;19.65;7.78;;;;;;;16.62;61.60;100697.69;1747952;80;20999;-74
2021/12/07 07:31:50;;;;;;;20.92;9.53;;;;;;;16.61;61.69;100706.97;1764545;80;21077;-75
2021/12/07 07:34:17;;;;;;;15.18;6.67;;;;;;;16.60;61.72;100709.19;1742588;80;20974;-74
2021/12/07 07:36:43;;;;;;;22.87;7.83;;;;;;;16.58;61.82;100707.09;1760718;80;21030;-73
2021/12/07 07:39:10;;;;;;;19.12;7.87;;;;;;;16.57;61.88;100708.03;1756467;80;20983;-72
2021/12/07 07:41:37;;;;;;;18.60;7.72;;;;;;;16.56;61.95;100704.55;1732414;80;21054;-73
2021/12/07 07:44:06;;;;;;;23.25;8.73;;;;;;;16.55;62.07;100696.75;1727452;81;21583;-73
2021/12/07 07:46:36;;;;;;;31.02;9.83;;;;;;;16.55;62.08;100694.95;1758991;80;21070;-73
2021/12/07 07:49:04;;;;;;;20.00;8.18;;;;;;;16.54;62.10;100695.03;1754769;80;21049;-74
2021/12/07 07:51:32;;;;;;;19.02;8.58;;;;;;;16.52;62.12;100694.25;1756070;80;21003;-73
2021/12/07 07:53:59;;;;;;;20.37;9.03;;;;;;;16.49;62.16;100692.61;1761049;80;21036;-76
2021/12/07 07:56:29;;;;;;;21.90;7.75;;;;;;;16.47;62.26;100690.94;1767221;80;21066;-73
2021/12/07 07:58:55;;;;;;;20.55;7.40;;;;;;;16.45;62.37;100688.84;1731092;81;20999;-75
2021/12/07 08:01:23;;;;;;;24.63;9.68;;;;;;;16.44;62.59;100692.41;1739788;81;20978;-76
2021/12/07 08:03:51;;;;;;;24.50;7.80;;;;;;;16.43;62.64;100694.63;1751210;80;21017;-76
2021/12/07 08:06:18;;;;;;;25.32;8.88;;;;;;;16.42;62.61;100689.01;1746890;81;21019;-74
2021/12/07 08:08:44;;;;;;;23.20;8.98;;;;;;;16.43;62.65;100694.18;1758835;80;21038;-76
2021/12/07 08:11:14;;;;;;;20.48;7.80;;;;;;;16.44;62.68;100698.98;1766349;80;21026;-74
2021/12/07 08:13:41;;;;;;;21.75;7.70;;;;;;;16.45;62.68;100700.66;1760074;80;20987;-75
2021/12/07 08:16:15;;;;;;;19.60;7.90;;;;;;;16.47;62.70;100706.70;1750864;80;20979;-76
2021/12/07 08:18:37;;;;;;;16.55;8.60;;;;;;;16.49;62.60;100705.75;1742150;80;21033;-78
2021/12/07 08:21:04;;;;;;;23.73;8.33;;;;;;;16.49;62.52;100709.69;1751132;80;21030;-76
2021/12/07 08:23:30;;;;;;;17.42;7.92;;;;;;;16.49;62.51;100707.06;1742910;80;21033;-76
2021/12/07 08:25:56;;;;;;;18.20;7.50;;;;;;;16.50;62.48;100706.60;1737391;81;21478;-77
2021/12/07 08:28:23;;;;;;;18.57;7.60;;;;;;;16.52;62.43;100708.70;1739657;81;21045;-75
2021/12/07 08:30:50;;;;;;;21.62;7.97;;;;;;;16.52;62.33;100705.62;1737498;80;22180;-75
2021/12/07 08:33:16;;;;;;;21.70;8.48;;;;;;;16.52;62.36;100699.50;1751544;80;21015;-74
2021/12/07 08:35:43;;;;;;;15.98;7.35;;;;;;;16.51;62.42;100709.16;1738980;81;21534;-77
2021/12/07 08:38:09;;;;;;;19.98;8.75;;;;;;;16.53;62.48;100699.88;1753694;80;21478;-73
2021/12/07 08:40:39;;;;;;;21.02;7.78;;;;;;;16.54;62.46;100695.03;1753927;80;21050;-75
2021/12/07 08:43:04;;;;;;;17.55;7.37;;;;;;;16.57;62.44;100688.33;1753173;80;21034;-76
2021/12/07 08:45:31;;;;;;;19.42;8.18;;;;;;;16.59;62.40;100691.73;1766179;80;21005;-75
2021/12/07 08:47:58;;;;;;;22.48;8.78;;;;;;;16.61;62.57;100685.95;1752741;80;21040;-77
2021/12/07 08:50:27;;;;;;;20.77;9.08;;;;;;;16.62;62.62;100687.64;1749241;80;21063;-77
2021/12/07 08:52:55;;;;;;;19.57;8.80;;;;;;;16.63;62.66;100681.47;1736459;80;20998;-77
2021/12/07 09:00:53;;;;;;;30.92;9.95;;;;;;;16.63;62.59;100657.83;1751424;80;21515;-76
2021/12/07 09:03:20;;;;;;;19.35;8.35;;;;;;;16.62;62.69;100650.86;1766330;80;21536;-75
2021/12/07 09:05:48;;;;;;;21.55;8.45;;;;;;;16.63;62.74;100642.89;1744803;80;21764;-75
2021/12/07 09:08:15;;;;;;;23.42;8.38;;;;;;;16.64;62.67;100631.93;1764038;80;21005;-75
2021/12/07 09:10:43;;;;;;;22.07;8.18;;;;;;;16.63;62.58;100631.55;1751584;80;21030;-74
2021/12/07 09:13:09;;;;;;;21.93;8.43;;;;;;;16.63;62.70;100621.05;1750797;81;21049;-76
2021/12/07 09:15:36;;;;;;;23.20;9.30;;;;;;;16.64;62.69;100614.86;1752636;80;21080;-74
2021/12/07 09:18:03;;;;;;;22.95;9.88;;;;;;;16.67;62.53;100619.97;1735078;80;21025;-77
2021/12/07 09:20:30;;;;;;;24.55;9.48;;;;;;;16.67;62.64;100616.03;1763052;80;21042;-70
2021/12/07 09:22:57;;;;;;;25.45;9.75;;;;;;;16.67;62.48;100615.55;1755763;80;21139;-65
2021/12/07 09:25:23;;;;;;;26.97;8.95;;;;;;;16.66;62.51;100613.00;1746112;80;21086;-73
2021/12/07 09:27:50;;;;;;;22.58;9.08;;;;;;;16.64;62.47;100617.48;1754933;80;21018;-74
2021/12/07 09:30:17;;;;;;;25.45;9.23;;;;;;;16.61;62.49;100609.28;1744624;80;21075;-75
2021/12/07 09:32:44;;;;;;;20.92;9.38;;;;;;;16.59;62.54;100614.25;1745030;80;21149;-74
2021/12/07 09:35:11;;;;;;;19.15;8.33;;;;;;;16.58;62.62;100613.84;1753669;80;21062;-74
2021/12/07 09:37:37;;;;;;;20.00;8.25;;;;;;;16.59;62.71;100605.05;1753795;81;21086;-74
2021/12/07 09:40:12;;;;;;;26.87;8.10;;;;;;;16.60;62.74;100607.59;1770763;80;21022;-74
2021/12/07 09:42:39;;;;;;;20.68;9.10;;;;;;;16.58;62.81;100599.39;1757730;80;20986;-74
2021/12/07 09:45:07;;;;;;;24.15;8.75;;;;;;;16.60;62.85;100608.05;1771113;80;21002;-74
2021/12/07 09:47:34;;;;;;;22.07;9.65;;;;;;;16.61;62.93;100597.45;1770610;80;21022;-75
2021/12/07 09:50:01;;;;;;;20.97;8.95;;;;;;;16.64;63.00;100597.78;1759699;80;20960;-74
2021/12/07 09:52:28;;;;;;;27.30;9.95;;;;;;;16.68;62.92;100599.33;1773341;80;21502;-75
2021/12/07 09:54:55;;;;;;;22.75;9.45;;;;;;;16.70;62.85;100599.65;1764195;80;21518;-74
2021/12/07 09:57:21;;;;;;;21.15;8.30;;;;;;;16.70;62.84;100585.65;1759254;80;21501;-74
2021/12/07 09:59:50;;;;;;;24.82;9.80;;;;;;;16.72;62.81;100589.05;1748556;80;20998;-74
2021/12/07 10:02:16;;;;;;;26.40;9.80;;;;;;;16.73;62.75;100585.03;1756379;80;21054;-74
2021/12/07 10:04:43;;;;;;;25.35;9.50;;;;;;;16.75;62.65;100588.91;1746435;80;21011;-69
2021/12/07 10:07:11;;;;;;;24.95;9.63;;;;;;;16.76;62.56;100591.45;1751475;80;20967;-69
2021/12/07 10:09:38;;;;;;;29.60;10.95;;;;;;;16.75;62.60;100588.91;1766841;80;21567;-69
2021/12/07 10:12:06;;;;;;;25.60;9.83;;;;;;;16.75;62.54;100575.78;1771393;80;21065;-69
2021/12/07 10:14:42;;;;;;;25.17;10.75;;;;;;;16.73;62.49;100569.27;1747354;80;21105;-69
2021/12/07 10:17:09;;;;;;;27.93;9.50;;;;;;;16.71;62.53;100566.35;1771244;80;21490;-69
2021/12/07 10:19:41;;;;;;;19.85;10.00;;;;;;;16.71;62.74;100574.23;1758241;80;21066;-69
2021/12/07 10:22:09;;;;;;;22.77;10.45;;;;;;;16.72;62.94;100578.55;1757215;80;21475;-69
2021/12/07 10:24:50;;;;;;;25.05;10.00;;;;;;;16.74;62.61;100579.31;1756517;80;21105;-68
2021/12/07 10:27:37;;;;;;;30.02;9.93;;;;;;;16.74;62.48;100584.58;1758290;80;21553;-69
2021/12/07 10:30:09;;;;;;;30.43;10.23;;;;;;;16.73;62.67;100577.62;1761191;80;21026;-70
2021/12/07 10:32:40;;;;;;;21.02;9.15;;;;;;;16.73;62.44;100569.75;1743778;80;21010;-68
2021/12/07 10:35:30;;;;;;;25.70;10.30;;;;;;;16.73;62.22;100566.63;1759369;80;21018;-71
2021/12/07 10:41:10;;;;;;;22.43;10.13;;;;;;;16.68;62.21;100566.48;1677830;83;21117;-70
2021/12/07 10:44:04;;;;;;;25.77;10.75;;;;;;;16.65;62.28;100564.03;1711261;83;21098;-69
2021/12/07 10:46:56;;;;;;;21.97;9.63;;;;;;;16.62;62.33;100566.79;1704540;83;21047;-69
2021/12/07 10:49:39;;;;;;;15.98;8.10;;;;;;;16.60;62.16;100557.69;1709225;83;21012;-69
2021/12/07 10:52:40;;;;;;;25.52;9.95;;;;;;;16.57;62.21;100553.05;1700870;83;21072;-70
2021/12/07 10:55:18;;;;;;;23.12;9.23;;;;;;;16.54;62.16;100544.00;1716454;82;21026;-71
2021/12/07 10:58:02;;;;;;;27.80;10.23;;;;;;;16.51;62.24;100545.44;1701022;83;21067;-68
2021/12/07 11:00:40;;;;;;;22.07;9.20;;;;;;;16.48;62.28;100541.64;1666310;84;21066;-71
2021/12/07 11:03:10;;;;;;;25.77;10.20;;;;;;;16.43;62.56;100543.62;1626756;87;21646;-69
2021/12/07 11:05:54;;;;;;;24.90;10.13;;;;;;;16.41;62.77;100538.91;1622440;86;21628;-70
2021/12/07 11:08:26;;;;;;;23.45;9.25;;;;;;;16.41;62.88;100544.16;1621241;88;21066;-71
2021/12/07 11:10:55;;;;;;;20.20;8.65;;;;;;;16.41;62.92;100544.16;1669761;85;21131;-72
2021/12/07 11:13:26;;;;;;;23.27;9.50;;;;;;;16.42;63.01;100538.00;1664923;84;21071;-70
2021/12/07 11:15:58;;;;;;;24.65;10.18;;;;;;;16.45;62.95;100530.81;1672074;84;21031;-71
2021/12/07 11:18:37;;;;;;;21.30;8.85;;;;;;;16.50;63.06;100525.37;1674357;84;21109;-68
2021/12/07 11:21:11;;;;;;;22.75;9.28;;;;;;;16.55;62.92;100519.45;1678161;84;21038;-70
2021/12/07 11:23:42;;;;;;;20.95;9.38;;;;;;;16.58;62.70;100518.82;1660814;85;21083;-69
2021/12/07 11:31:52;;;;;;;16.62;8.48;;;;;;;16.68;62.67;100490.30;1646004;85;21101;-67
2021/12/07 11:34:31;;;;;;;16.15;8.13;;;;;;;16.71;62.52;100487.53;1599500;89;21632;-69
2021/12/07 11:37:09;;;;;;;17.52;8.85;;;;;;;16.70;62.55;100489.75;1515966;93;21145;-67
2021/12/07 11:39:56;;;;;;;18.05;8.15;;;;;;;16.71;62.48;100490.16;1480738;95;21239;-68
2021/12/07 11:42:29;;;;;;;17.85;9.28;;;;;;;16.70;62.54;100489.75;1479871;96;21247;-69
2021/12/07 11:45:07;;;;;;;17.12;7.67;;;;;;;16.69;62.60;100486.75;1482934;95;21086;-68
2021/12/07 11:47:43;;;;;;;19.98;8.43;;;;;;;16.69;62.80;100481.50;1484719;96;21183;-69
2021/12/07 11:50:32;;;;;;;24.52;8.70;;;;;;;16.69;62.84;100477.07;1448677;99;21124;-68
2021/12/07 11:53:19;;;;;;;20.30;8.28;;;;;;;16.69;62.93;100480.19;1449979;99;21159;-69
2021/12/07 11:55:50;;;;;;;17.67;8.28;;;;;;;16.71;62.94;100477.02;1448604;99;21211;-69
2021/12/07 11:58:18;;;;;;;19.25;8.23;;;;;;;16.74;62.82;100471.59;1447662;99;21256;-68
2021/12/07 12:00:49;;;;;;;17.62;8.33;;;;;;;16.75;62.77;100464.97;1442216;99;21757;-68
2021/12/07 12:03:17;;;;;;;20.97;8.25;;;;;;;16.75;62.71;100459.71;1436965;99;21073;-68
2021/12/07 12:05:46;;;;;;;18.85;8.25;;;;;;;16.75;62.66;100458.86;1444380;99;21137;-69
2021/12/07 12:08:14;;;;;;;17.48;8.53;;;;;;;16.75;62.80;100457.54;1439888;99;21613;-70
2021/12/07 12:11:04;;;;;;;20.32;8.58;;;;;;;16.76;62.77;100452.20;1425349;99;21098;-69
2021/12/07 12:14:01;;;;;;;23.52;10.23;;;;;;;16.77;62.65;100437.29;1442452;99;21606;-70
2021/12/07 12:16:50;;;;;;;18.75;8.58;;;;;;;16.74;62.67;100437.44;1443608;99;21648;-71
2021/12/07 12:19:41;;;;;;;20.15;9.70;;;;;;;16.68;62.64;100441.23;1427479;99;21637;-70
2021/12/07 12:22:15;;;;;;;19.85;9.58;;;;;;;16.64;62.79;100441.47;1442384;99;21124;-71
2021/12/07 12:24:55;;;;;;;25.15;8.65;;;;;;;16.62;62.65;100447.27;1432118;99;21100;-71
2021/12/07 12:27:27;;;;;;;19.30;8.93;;;;;;;16.60;62.53;100447.81;1414986;99;21132;-70
2021/12/07 12:29:56;;;;;;;13.93;7.87;;;;;;;16.59;62.48;100454.00;1419175;100;21193;-69
2021/12/07 12:32:39;;;;;;;18.30;8.13;;;;;;;16.58;62.61;100448.35;1416213;98;21185;-73
2021/12/07 12:35:09;;;;;;;14.10;7.87;;;;;;;16.59;62.37;100444.33;1516269;93;21121;-69
2021/12/07 12:37:36;;;;;;;19.30;8.83;;;;;;;16.57;62.36;100444.87;1519468;93;21568;-68
2021/12/07 12:40:09;;;;;;;16.00;8.50;;;;;;;16.57;62.42;100443.55;1513867;94;21121;-69
2021/12/07 12:42:46;;;;;;;22.70;9.43;;;;;;;16.56;62.52;100443.64;1516924;93;21087;-70
2021/12/07 12:45:35;;;;;;;20.70;8.05;;;;;;;16.59;62.63;100448.75;1542925;92;21206;-68
2021/12/07 12:48:11;;;;;;;17.30;7.97;;;;;;;16.60;62.41;100454.37;1539785;92;21120;-69
2021/12/07 12:50:51;;;;;;;13.88;7.15;;;;;;;16.58;62.19;100458.41;1454119;98;21138;-68
2021/12/07 12:53:31;;;;;;;19.48;8.35;;;;;;;16.57;62.03;100457.17;1467230;94;21164;-68
2021/12/07 12:56:11;;;;;;;19.32;8.50;;;;;;;16.54;62.02;100450.75;1522035;93;21050;-68
2021/12/07 12:58:42;;;;;;;21.00;8.40;;;;;;;16.52;62.10;100455.23;1505572;94;21098;-69
2021/12/07 13:01:34;;;;;;;18.55;9.05;;;;;;;16.50;62.08;100460.57;1500489;93;21103;-68
2021/12/07 13:04:23;;;;;;;15.08;8.23;;;;;;;16.48;62.07;100467.64;1482314;94;21079;-69
2021/12/07 13:07:02;;;;;;;17.45;7.87;;;;;;;16.45;62.08;100465.61;1493330;95;21158;-69
2021/12/07 13:09:27;;;;;;;19.73;8.48;;;;;;;16.38;62.28;100466.41;1500185;94;21162;-69
2021/12/07 13:12:16;;;;;;;19.15;8.33;;;;;;;16.36;62.31;100467.41;1496282;92;21213;-70
2021/12/07 13:14:55;;;;;;;16.97;8.65;;;;;;;16.34;62.44;100467.95;1494730;94;21095;-72
2021/12/07 13:17:31;;;;;;;15.72;8.20;;;;;;;16.34;62.47;100466.63;1502044;93;21134;-72
2021/12/07 13:20:21;;;;;;;15.83;8.40;;;;;;;16.32;62.49;100464.55;1457496;97;21172;-70
2021/12/07 13:23:10;;;;;;;14.83;7.85;;;;;;;16.32;62.52;100471.97;1444723;97;21105;-69